createdAt,value
2023-07-19T00:01:05.788Z,20.04
2023-07-19T00:04:14.389Z,19.99
2023-07-19T00:07:22.968Z,20.12
2023-07-19T00:10:31.602Z,20.11
2023-07-19T00:13:40.052Z,20.06
2023-07-19T00:16:50.021Z,20.04
2023-07-19T00:19:59.133Z,19.93
2023-07-19T00:23:07.600Z,19.86
2023-07-19T00:26:16.075Z,19.88
2023-07-19T00:29:24.472Z,19.95
2023-07-19T00:32:34.855Z,19.73
2023-07-19T00:35:43.993Z,19.61
2023-07-19T00:38:55.011Z,19.54
2023-07-19T00:42:04.404Z,19.60
2023-07-19T00:45:13.071Z,19.54
2023-07-19T00:48:24.078Z,19.56
2023-07-19T00:51:32.777Z,19.67
2023-07-19T00:54:42.094Z,19.87
2023-07-19T00:57:50.784Z,19.77
2023-07-19T01:00:59.950Z,19.65
2023-07-19T01:04:10.040Z,19.53
2023-07-19T01:07:19.612Z,19.67
2023-07-19T01:10:29.506Z,19.55
2023-07-19T01:13:37.752Z,19.28
2023-07-19T01:16:46.013Z,19.11
2023-07-19T01:19:56.283Z,19.17
2023-07-19T01:23:06.866Z,19.30
2023-07-19T01:26:15.435Z,19.27
2023-07-19T01:29:24.390Z,19.43
2023-07-19T01:32:32.806Z,19.37
2023-07-19T01:35:41.362Z,19.35
2023-07-19T01:38:51.621Z,19.28
2023-07-19T01:42:00.458Z,19.00
2023-07-19T01:45:09.983Z,19.12
2023-07-19T01:48:18.918Z,18.78
2023-07-19T01:51:27.368Z,18.93
2023-07-19T01:54:37.163Z,18.70
2023-07-19T01:57:45.701Z,18.35
2023-07-19T02:00:55.762Z,18.34
2023-07-19T02:04:06.191Z,18.25
2023-07-19T02:07:15.139Z,18.24
2023-07-19T02:10:25.289Z,18.25
2023-07-19T02:13:33.523Z,18.33
2023-07-19T02:16:42.071Z,18.41
2023-07-19T02:19:50.967Z,18.42
2023-07-19T02:22:59.516Z,18.47
2023-07-19T02:26:11.681Z,18.37
2023-07-19T02:29:20.180Z,18.27
2023-07-19T02:32:28.630Z,18.34
2023-07-19T02:35:36.831Z,18.42
2023-07-19T02:38:45.480Z,18.23
2023-07-19T02:41:55.425Z,18.17
2023-07-19T02:45:04.287Z,18.11
2023-07-19T02:48:12.480Z,18.08
2023-07-19T02:51:21.065Z,17.90
2023-07-19T02:54:29.598Z,17.89
2023-07-19T02:57:39.220Z,18.06
2023-07-19T03:00:47.512Z,17.93
2023-07-19T03:03:55.874Z,17.88
2023-07-19T03:07:04.293Z,17.74
2023-07-19T03:10:12.733Z,17.70
2023-07-19T03:13:22.431Z,17.69
2023-07-19T03:16:31.915Z,17.68
2023-07-19T03:19:40.363Z,17.69
2023-07-19T03:22:48.754Z,17.69
2023-07-19T03:25:59.212Z,17.65
2023-07-19T03:29:09.862Z,17.70
2023-07-19T03:32:18.752Z,17.73
2023-07-19T03:35:27.299Z,17.81
2023-07-19T03:38:35.733Z,17.85
2023-07-19T03:41:44.614Z,17.64
2023-07-19T03:44:54.287Z,17.59
2023-07-19T03:48:03.131Z,17.51
2023-07-19T03:51:14.141Z,17.47
2023-07-19T03:54:22.468Z,17.62
2023-07-19T03:57:31.018Z,17.48
2023-07-19T04:00:40.759Z,17.49
2023-07-19T04:03:50.534Z,17.77
2023-07-19T04:06:59.221Z,17.64
2023-07-19T04:10:08.522Z,17.77
2023-07-19T04:13:17.342Z,17.74
2023-07-19T04:16:27.824Z,17.79
2023-07-19T04:19:36.477Z,17.85
2023-07-19T04:22:47.113Z,18.00
2023-07-19T04:25:55.638Z,18.07
2023-07-19T04:29:04.860Z,18.08
2023-07-19T04:32:15.156Z,18.32
2023-07-19T04:35:24.825Z,18.50
2023-07-19T04:38:33.823Z,18.64
2023-07-19T04:41:43.383Z,18.82
2023-07-19T04:44:54.204Z,19.02
2023-07-19T04:48:06.386Z,19.10
2023-07-19T04:51:15.218Z,19.44
2023-07-19T04:54:23.455Z,19.93
2023-07-19T04:57:32.143Z,20.19
2023-07-19T05:00:41.140Z,20.20
2023-07-19T05:03:51.182Z,19.98
2023-07-19T05:07:00.051Z,20.12
2023-07-19T05:10:11.702Z,20.08
2023-07-19T05:13:21.688Z,19.96
2023-07-19T05:16:30.193Z,19.92
2023-07-19T05:19:40.819Z,19.94
2023-07-19T05:22:49.297Z,20.28
2023-07-19T05:25:57.539Z,20.35
2023-07-19T05:29:06.361Z,20.60
2023-07-19T05:32:14.970Z,20.84
2023-07-19T05:35:24.845Z,21.16
2023-07-19T05:38:33.416Z,21.32
2023-07-19T05:41:41.975Z,21.01
2023-07-19T05:44:50.496Z,20.80
2023-07-19T05:47:59.584Z,20.77
2023-07-19T05:51:10.085Z,21.01
2023-07-19T05:54:18.366Z,21.32
2023-07-19T05:57:26.549Z,21.51
2023-07-19T06:00:35.097Z,21.79
2023-07-19T06:03:43.538Z,21.95
2023-07-19T06:06:53.190Z,22.27
2023-07-19T06:10:01.380Z,23.03
2023-07-19T06:13:09.630Z,23.07
2023-07-19T06:16:18.328Z,22.72
2023-07-19T06:19:26.962Z,22.31
2023-07-19T06:22:37.114Z,22.41
2023-07-19T06:25:48.352Z,22.47
2023-07-19T06:28:57.778Z,23.09
2023-07-19T06:32:07.682Z,23.17
2023-07-19T06:35:15.829Z,24.61
2023-07-19T06:38:27.943Z,25.21
2023-07-19T06:41:36.439Z,27.16
2023-07-19T06:44:45.156Z,26.70
2023-07-19T06:47:53.828Z,27.30
2023-07-19T06:51:04.096Z,27.02
2023-07-19T06:54:15.720Z,26.65
2023-07-19T06:57:24.928Z,26.39
2023-07-19T07:00:33.310Z,25.47
2023-07-19T07:03:42.144Z,26.54
2023-07-19T07:06:51.464Z,27.24
2023-07-19T07:10:06.026Z,26.01
2023-07-19T07:13:14.393Z,25.37
2023-07-19T07:16:22.681Z,24.81
2023-07-19T07:19:31.469Z,24.37
2023-07-19T07:22:40.086Z,25.69
2023-07-19T07:25:54.688Z,26.77
2023-07-19T07:29:04.635Z,26.43
2023-07-19T07:32:13.231Z,26.60
2023-07-19T07:35:21.880Z,26.41
2023-07-19T07:38:30.206Z,27.27
2023-07-19T07:41:39.825Z,28.82
2023-07-19T07:44:48.497Z,28.41
2023-07-19T07:47:57.403Z,28.04
2023-07-19T07:51:06.651Z,28.82
2023-07-19T07:54:15.239Z,29.54
2023-07-19T07:57:25.423Z,29.87
2023-07-19T08:00:33.956Z,30.91
2023-07-19T08:03:42.532Z,30.58
2023-07-19T08:06:51.517Z,30.58
2023-07-19T08:09:59.871Z,31.02
2023-07-19T08:13:11.421Z,32.67
2023-07-19T08:16:19.654Z,32.30
2023-07-19T08:19:27.910Z,31.58
2023-07-19T08:22:36.484Z,32.27
2023-07-19T08:25:45.088Z,31.97
2023-07-19T08:28:56.249Z,29.98
2023-07-19T08:32:05.023Z,29.01
2023-07-19T08:35:13.757Z,28.72
2023-07-19T08:38:22.332Z,29.76
2023-07-19T08:41:34.654Z,29.63
2023-07-19T08:44:44.757Z,29.64
2023-07-19T08:47:53.594Z,28.93
2023-07-19T08:51:03.714Z,28.82
2023-07-19T08:54:12.416Z,29.16
2023-07-19T08:57:22.076Z,30.16
2023-07-19T09:00:34.977Z,29.98
2023-07-19T09:03:43.867Z,28.44
2023-07-19T09:06:52.765Z,28.34
2023-07-19T09:10:01.252Z,27.56
2023-07-19T09:13:10.168Z,27.29
2023-07-19T09:16:27.998Z,27.26
2023-07-19T09:19:39.673Z,27.10
2023-07-19T09:22:48.333Z,27.12
2023-07-19T09:25:59.470Z,27.47
2023-07-19T09:29:08.516Z,27.74
2023-07-19T09:32:18.233Z,28.43
2023-07-19T09:35:29.343Z,27.55
2023-07-19T09:38:37.557Z,27.62
2023-07-19T09:41:47.346Z,27.54
2023-07-19T09:44:55.968Z,28.48
2023-07-19T09:48:07.879Z,28.69
2023-07-19T09:51:20.446Z,29.04
2023-07-19T09:54:34.419Z,28.64
2023-07-19T09:57:49.721Z,29.36
2023-07-19T10:00:59.936Z,29.42
2023-07-19T10:07:51.164Z,28.84
2023-07-19T10:11:02.539Z,28.13
2023-07-19T10:14:25.096Z,28.08
2023-07-19T10:17:43.631Z,28.13
2023-07-19T10:21:03.249Z,28.31
2023-07-19T10:24:16.053Z,28.18
2023-07-19T10:27:38.060Z,28.55
2023-07-19T10:30:51.903Z,28.37
2023-07-19T10:34:00.335Z,28.49
2023-07-19T10:37:09.232Z,28.23
2023-07-19T10:40:19.237Z,27.98
2023-07-19T10:43:44.932Z,27.45
2023-07-19T10:46:56.429Z,27.20
2023-07-19T10:50:07.376Z,27.08
2023-07-19T10:53:16.233Z,27.36
2023-07-19T10:56:25.945Z,27.94
2023-07-19T10:59:35.828Z,27.91
2023-07-19T11:02:44.409Z,27.84
2023-07-19T11:05:54.083Z,28.48
2023-07-19T11:09:06.678Z,28.85
2023-07-19T11:12:18.859Z,28.89
2023-07-19T11:15:28.916Z,29.01
2023-07-19T11:18:40.020Z,29.47
2023-07-19T11:21:48.205Z,28.91
2023-07-19T11:24:57.664Z,29.25
2023-07-19T11:28:07.772Z,28.38
2023-07-19T11:31:34.272Z,28.36
2023-07-19T11:34:51.044Z,28.81
2023-07-19T11:38:01.352Z,28.40
2023-07-19T11:41:09.649Z,28.62
2023-07-19T11:44:21.565Z,28.90
2023-07-19T11:47:29.987Z,28.88
2023-07-19T11:50:39.531Z,28.65
2023-07-19T11:53:49.135Z,28.86
2023-07-19T11:56:57.732Z,29.51
2023-07-19T12:00:10.294Z,29.64
2023-07-19T12:03:22.179Z,29.56
2023-07-19T12:06:31.006Z,29.29
2023-07-19T12:09:39.183Z,28.81
2023-07-19T12:12:49.641Z,28.87
2023-07-19T12:15:59.684Z,27.96
2023-07-19T12:19:11.156Z,27.26
2023-07-19T12:22:19.783Z,27.68
2023-07-19T12:25:28.307Z,28.11
2023-07-19T12:28:37.139Z,28.33
2023-07-19T12:31:47.500Z,28.59
2023-07-19T12:34:57.117Z,28.81
2023-07-19T12:38:05.599Z,28.74
2023-07-19T12:41:13.921Z,29.11
2023-07-19T12:44:22.943Z,29.29
2023-07-19T12:47:32.683Z,29.64
2023-07-19T12:50:41.133Z,29.09
2023-07-19T12:53:49.610Z,29.24
2023-07-19T12:56:57.956Z,28.42
2023-07-19T13:00:11.377Z,28.76
2023-07-19T13:03:21.676Z,28.66
2023-07-19T13:06:30.485Z,28.99
2023-07-19T13:09:38.859Z,29.03
2023-07-19T13:12:47.219Z,29.26
2023-07-19T13:15:55.556Z,29.31
2023-07-19T13:19:05.923Z,29.03
2023-07-19T13:22:14.921Z,28.90
2023-07-19T13:25:23.465Z,28.98
2023-07-19T13:28:31.898Z,29.06
2023-07-19T13:31:41.279Z,29.11
2023-07-19T13:34:51.281Z,28.83
2023-07-19T13:41:11.529Z,29.89
2023-07-19T13:44:20.193Z,29.69
2023-07-19T13:47:28.700Z,29.68
2023-07-19T13:50:38.905Z,28.64
2023-07-19T13:53:47.983Z,28.46
2023-07-19T13:56:56.614Z,28.74
2023-07-19T14:00:08.371Z,28.76
2023-07-19T14:03:18.359Z,28.64
2023-07-19T14:06:28.588Z,28.97
2023-07-19T14:09:37.038Z,29.21
2023-07-19T14:12:45.804Z,28.61
2023-07-19T14:16:04.867Z,28.47
2023-07-19T14:19:16.926Z,28.39
2023-07-19T14:22:27.679Z,27.96
2023-07-19T14:25:36.138Z,28.46
2023-07-19T14:28:44.667Z,28.31
2023-07-19T14:31:54.270Z,28.62
2023-07-19T14:35:02.986Z,28.77
2023-07-19T14:38:12.656Z,27.98
2023-07-19T14:41:20.994Z,27.81
2023-07-19T14:44:29.291Z,27.61
2023-07-19T14:47:38.899Z,28.51
2023-07-19T14:50:56.141Z,28.28
2023-07-19T14:54:06.824Z,28.55
2023-07-19T14:57:15.356Z,28.65
2023-07-19T15:03:35.389Z,28.69
2023-07-19T15:06:45.019Z,28.84
2023-07-19T15:09:54.868Z,29.02
2023-07-19T15:13:04.618Z,28.61
2023-07-19T15:16:13.568Z,28.58
2023-07-19T15:19:21.995Z,28.84
2023-07-19T15:22:30.763Z,28.58
2023-07-19T15:25:40.649Z,28.70
2023-07-19T15:28:49.619Z,28.81
2023-07-19T15:31:58.519Z,28.78
2023-07-19T15:35:07.985Z,28.51
2023-07-19T15:38:25.733Z,28.75
2023-07-19T15:41:35.793Z,29.20
2023-07-19T15:44:44.011Z,29.79
2023-07-19T15:47:52.660Z,30.08
2023-07-19T15:51:01.515Z,29.59
2023-07-19T15:54:09.958Z,29.22
2023-07-19T15:57:19.730Z,29.35
2023-07-19T16:00:28.104Z,29.51
2023-07-19T16:03:37.862Z,29.42
2023-07-19T16:06:46.589Z,29.04
2023-07-19T16:09:54.972Z,28.75
2023-07-19T16:13:04.927Z,28.18
2023-07-19T16:16:13.388Z,27.95
2023-07-19T16:19:21.753Z,28.08
2023-07-19T16:22:30.082Z,28.32
2023-07-19T16:25:38.401Z,28.03
2023-07-19T16:28:48.096Z,28.46
2023-07-19T16:31:57.761Z,28.68
2023-07-19T16:35:08.405Z,28.51
2023-07-19T16:38:18.290Z,28.06
2023-07-19T16:41:26.723Z,28.02
2023-07-19T16:44:36.347Z,27.97
2023-07-19T16:47:51.616Z,27.85
2023-07-19T16:51:00.240Z,27.86
2023-07-19T16:54:08.730Z,27.88
2023-07-19T16:57:16.997Z,28.06
2023-07-19T17:00:26.619Z,27.96
2023-07-19T17:03:35.079Z,27.92
2023-07-19T17:06:43.320Z,29.01
2023-07-19T17:09:54.459Z,30.32
2023-07-19T17:13:04.574Z,29.12
2023-07-19T17:16:14.854Z,30.32
2023-07-19T17:19:23.364Z,28.91
2023-07-19T17:22:31.680Z,28.35
2023-07-19T17:25:39.901Z,28.36
2023-07-19T17:28:49.855Z,28.31
2023-07-19T17:31:59.543Z,27.92
2023-07-19T17:35:08.813Z,27.54
2023-07-19T17:38:17.105Z,27.20
2023-07-19T17:41:25.566Z,27.26
2023-07-19T17:44:34.202Z,27.54
2023-07-19T17:47:45.491Z,27.43
2023-07-19T17:50:53.841Z,27.37
2023-07-19T17:54:02.108Z,27.19
2023-07-19T17:57:10.419Z,26.90
2023-07-19T18:00:19.135Z,26.84
2023-07-19T18:03:29.529Z,26.90
2023-07-19T18:06:37.935Z,26.99
2023-07-19T18:09:46.789Z,26.95
2023-07-19T18:12:55.678Z,26.86
2023-07-19T18:16:03.904Z,26.75
2023-07-19T18:19:13.642Z,26.43
2023-07-19T18:22:21.805Z,26.21
2023-07-19T18:25:29.966Z,25.84
2023-07-19T18:28:38.272Z,25.64
2023-07-19T18:31:47.163Z,25.48
2023-07-19T18:34:56.715Z,25.44
2023-07-19T18:38:05.043Z,25.38
2023-07-19T18:41:13.645Z,25.27
2023-07-19T18:44:24.664Z,25.16
2023-07-19T18:47:33.116Z,25.12
2023-07-19T18:50:44.075Z,25.09
2023-07-19T18:53:52.261Z,24.91
2023-07-19T18:57:00.986Z,24.88
2023-07-19T19:00:10.890Z,24.80
2023-07-19T19:03:19.506Z,24.62
2023-07-19T19:06:30.227Z,24.47
2023-07-19T19:09:38.916Z,24.34
2023-07-19T19:12:48.163Z,24.47
2023-07-19T19:15:56.777Z,24.36
2023-07-19T19:19:05.009Z,24.22
2023-07-19T19:22:16.028Z,24.16
2023-07-19T19:25:24.355Z,24.03
2023-07-19T19:28:32.577Z,23.90
2023-07-19T19:31:40.901Z,23.71
2023-07-19T19:34:49.384Z,23.86
2023-07-19T19:37:59.095Z,23.79
2023-07-19T19:41:10.575Z,23.72
2023-07-19T19:44:18.735Z,23.48
2023-07-19T19:47:26.933Z,23.47
2023-07-19T19:50:35.398Z,23.44
2023-07-19T19:53:45.462Z,23.28
2023-07-19T19:56:53.800Z,22.99
2023-07-19T20:00:03.025Z,22.75
2023-07-19T20:06:24.375Z,22.50
2023-07-19T20:09:38.505Z,22.36
2023-07-19T20:12:54.841Z,22.02
2023-07-19T20:16:03.236Z,22.03
2023-07-19T20:22:23.035Z,21.67
2023-07-19T20:25:43.964Z,21.45
2023-07-19T20:41:47.743Z,21.66
2023-07-19T20:44:56.933Z,21.24
2023-07-19T20:48:06.095Z,20.94
2023-07-19T20:51:14.281Z,20.73
2023-07-19T20:54:22.762Z,20.57
2023-07-19T20:57:32.360Z,20.55
2023-07-19T21:00:40.847Z,20.55
2023-07-19T21:03:49.254Z,20.95
2023-07-19T21:06:58.081Z,21.05
2023-07-19T21:10:07.625Z,21.18
2023-07-19T21:13:17.130Z,21.04
2023-07-19T21:16:25.466Z,20.68
2023-07-19T21:19:33.959Z,20.40
2023-07-19T21:22:42.539Z,20.15
2023-07-19T21:25:51.308Z,20.02
2023-07-19T21:29:01.710Z,20.04
2023-07-19T21:32:10.868Z,20.42
2023-07-19T21:35:19.694Z,20.54
2023-07-19T21:38:28.761Z,20.33
2023-07-19T21:41:36.996Z,20.19
2023-07-19T21:44:46.824Z,20.17
2023-07-19T21:47:55.370Z,20.34
2023-07-19T21:51:04.501Z,20.75
2023-07-19T21:54:13.178Z,20.70
2023-07-19T21:57:21.517Z,20.66
2023-07-19T22:00:45.670Z,20.51
2023-07-19T22:03:54.342Z,20.30
2023-07-19T22:07:03.639Z,19.99
2023-07-19T22:10:12.201Z,19.84
2023-07-19T22:13:20.778Z,19.76
2023-07-19T22:16:30.444Z,19.73
2023-07-19T22:19:38.645Z,19.68
2023-07-19T22:22:47.147Z,19.71
2023-07-19T22:25:56.286Z,19.60
2023-07-19T22:29:07.358Z,19.37
2023-07-19T22:32:17.127Z,19.18
2023-07-19T22:35:25.359Z,19.03
2023-07-19T22:38:34.019Z,19.10
2023-07-19T22:41:42.337Z,18.89
2023-07-19T22:44:50.532Z,18.85
2023-07-19T22:48:00.540Z,18.83
2023-07-19T22:51:11.631Z,18.80
2023-07-19T22:54:20.563Z,18.58
2023-07-19T22:57:28.815Z,18.60
2023-07-19T23:00:37.583Z,18.61
2023-07-19T23:03:47.453Z,18.60
2023-07-19T23:06:56.516Z,18.51
2023-07-19T23:10:05.381Z,18.42
2023-07-19T23:13:14.251Z,18.42
2023-07-19T23:16:24.215Z,18.36
2023-07-19T23:19:38.041Z,18.24
2023-07-19T23:22:46.592Z,18.21
2023-07-19T23:25:55.046Z,18.30
2023-07-19T23:29:04.221Z,18.33
2023-07-19T23:32:13.639Z,18.30
2023-07-19T23:35:23.479Z,18.35
2023-07-19T23:38:31.737Z,18.47
2023-07-19T23:41:40.250Z,18.45
2023-07-19T23:44:52.942Z,18.18
2023-07-19T23:48:01.785Z,17.99
2023-07-19T23:51:11.978Z,17.81
2023-07-19T23:54:20.193Z,17.62
2023-07-19T23:57:28.786Z,17.51
